sensor_id;sensor_type;location;lat;lon;timestamp;temperature;humidity
66184;DHT22;52989;48.796;9.806;2023-02-11T00:00:50;-3.60;99.90
66184;DHT22;52989;48.796;9.806;2023-02-11T00:03:15;-3.50;99.90
66184;DHT22;52989;48.796;9.806;2023-02-11T00:05:41;-3.60;99.90
66184;DHT22;52989;48.796;9.806;2023-02-11T00:08:06;-3.60;99.90
66184;DHT22;52989;48.796;9.806;2023-02-11T00:10:32;-3.70;99.90
66184;DHT22;52989;48.796;9.806;2023-02-11T00:12:57;-3.70;99.90
66184;DHT22;52989;48.796;9.806;2023-02-11T00:15:23;-3.50;99.90
66184;DHT22;52989;48.796;9.806;2023-02-11T00:17:48;-3.50;99.90
66184;DHT22;52989;48.796;9.806;2023-02-11T00:20:14;-3.50;99.90
66184;DHT22;52989;48.796;9.806;2023-02-11T00:22:39;-3.20;99.90
66184;DHT22;52989;48.796;9.806;2023-02-11T00:25:05;-3.30;99.90
66184;DHT22;52989;48.796;9.806;2023-02-11T00:27:30;-3.20;99.90
66184;DHT22;52989;48.796;9.806;2023-02-11T00:29:55;-3.10;99.90
66184;DHT22;52989;48.796;9.806;2023-02-11T00:32:21;-3.10;99.90
66184;DHT22;52989;48.796;9.806;2023-02-11T00:34:46;-3.50;99.90
66184;DHT22;52989;48.796;9.806;2023-02-11T00:37:12;-3.60;99.90
66184;DHT22;52989;48.796;9.806;2023-02-11T00:39:37;-3.60;99.90
66184;DHT22;52989;48.796;9.806;2023-02-11T00:42:03;-2.80;99.90
66184;DHT22;52989;48.796;9.806;2023-02-11T00:44:28;-2.60;99.90
66184;DHT22;52989;48.796;9.806;2023-02-11T00:46:54;-2.40;99.90
66184;DHT22;52989;48.796;9.806;2023-02-11T00:49:19;-2.40;99.90
66184;DHT22;52989;48.796;9.806;2023-02-11T00:51:45;-2.90;99.90
66184;DHT22;52989;48.796;9.806;2023-02-11T00:54:10;-3.10;99.90
66184;DHT22;52989;48.796;9.806;2023-02-11T00:56:36;-3.40;99.90
66184;DHT22;52989;48.796;9.806;2023-02-11T00:59:01;-3.50;99.90
66184;DHT22;52989;48.796;9.806;2023-02-11T01:01:27;-3.40;99.90
66184;DHT22;52989;48.796;9.806;2023-02-11T01:03:52;-3.40;99.90
66184;DHT22;52989;48.796;9.806;2023-02-11T01:06:18;-2.80;99.90
66184;DHT22;52989;48.796;9.806;2023-02-11T01:08:43;-2.80;99.90
66184;DHT22;52989;48.796;9.806;2023-02-11T01:11:16;-3.00;99.90
66184;DHT22;52989;48.796;9.806;2023-02-11T01:13:42;-3.30;99.90
66184;DHT22;52989;48.796;9.806;2023-02-11T01:16:09;-3.40;99.90
66184;DHT22;52989;48.796;9.806;2023-02-11T01:18:35;-3.90;99.90
66184;DHT22;52989;48.796;9.806;2023-02-11T01:21:01;-4.10;99.90
66184;DHT22;52989;48.796;9.806;2023-02-11T01:23:26;-4.20;99.90
66184;DHT22;52989;48.796;9.806;2023-02-11T01:25:52;-3.70;99.90
66184;DHT22;52989;48.796;9.806;2023-02-11T01:28:19;-3.50;99.90
66184;DHT22;52989;48.796;9.806;2023-02-11T01:30:45;-3.00;99.90
66184;DHT22;52989;48.796;9.806;2023-02-11T01:33:10;-3.40;99.90
66184;DHT22;52989;48.796;9.806;2023-02-11T01:35:39;-3.40;99.90
66184;DHT22;52989;48.796;9.806;2023-02-11T01:38:05;-3.30;99.90
66184;DHT22;52989;48.796;9.806;2023-02-11T01:40:31;-3.60;99.90
66184;DHT22;52989;48.796;9.806;2023-02-11T01:42:56;-3.40;99.90
66184;DHT22;52989;48.796;9.806;2023-02-11T01:45:45;-3.20;99.90
66184;DHT22;52989;48.796;9.806;2023-02-11T01:48:31;-2.90;99.90
66184;DHT22;52989;48.796;9.806;2023-02-11T01:51:02;-2.50;99.90
66184;DHT22;52989;48.796;9.806;2023-02-11T01:53:29;-2.40;99.90
66184;DHT22;52989;48.796;9.806;2023-02-11T01:56:14;-2.50;99.90
66184;DHT22;52989;48.796;9.806;2023-02-11T01:59:02;-2.50;99.90
66184;DHT22;52989;48.796;9.806;2023-02-11T02:01:29;-3.10;99.90
66184;DHT22;52989;48.796;9.806;2023-02-11T02:03:56;-3.30;99.90
66184;DHT22;52989;48.796;9.806;2023-02-11T02:06:25;-3.80;99.90
66184;DHT22;52989;48.796;9.806;2023-02-11T02:11:19;-3.70;99.90
66184;DHT22;52989;48.796;9.806;2023-02-11T02:13:44;-3.90;99.90
66184;DHT22;52989;48.796;9.806;2023-02-11T02:16:14;-3.80;99.90
66184;DHT22;52989;48.796;9.806;2023-02-11T02:19:00;-3.60;99.90
66184;DHT22;52989;48.796;9.806;2023-02-11T02:34:47;-3.30;99.90
66184;DHT22;52989;48.796;9.806;2023-02-11T02:37:17;-3.40;99.90
66184;DHT22;52989;48.796;9.806;2023-02-11T02:39:44;-3.60;99.90
66184;DHT22;52989;48.796;9.806;2023-02-11T02:42:13;-3.80;99.90
66184;DHT22;52989;48.796;9.806;2023-02-11T02:44:38;-3.80;99.90
66184;DHT22;52989;48.796;9.806;2023-02-11T02:47:04;-3.30;99.90
66184;DHT22;52989;48.796;9.806;2023-02-11T02:49:29;-3.40;99.90
66184;DHT22;52989;48.796;9.806;2023-02-11T03:02:24;-3.30;99.90
66184;DHT22;52989;48.796;9.806;2023-02-11T03:07:27;-3.10;99.90
66184;DHT22;52989;48.796;9.806;2023-02-11T03:09:58;-3.40;99.90
66184;DHT22;52989;48.796;9.806;2023-02-11T03:12:26;-3.40;99.90
66184;DHT22;52989;48.796;9.806;2023-02-11T03:14:53;-3.20;99.90
66184;DHT22;52989;48.796;9.806;2023-02-11T03:17:18;-3.10;99.90
66184;DHT22;52989;48.796;9.806;2023-02-11T03:19:45;-2.10;99.90
66184;DHT22;52989;48.796;9.806;2023-02-11T03:22:14;-2.90;99.90
66184;DHT22;52989;48.796;9.806;2023-02-11T03:24:41;-2.80;99.90
66184;DHT22;52989;48.796;9.806;2023-02-11T03:27:19;-2.90;99.90
66184;DHT22;52989;48.796;9.806;2023-02-11T03:29:51;-3.10;99.90
66184;DHT22;52989;48.796;9.806;2023-02-11T03:37:15;-2.20;99.90
66184;DHT22;52989;48.796;9.806;2023-02-11T03:39:44;-2.20;99.90
66184;DHT22;52989;48.796;9.806;2023-02-11T03:42:11;-1.70;99.90
66184;DHT22;52989;48.796;9.806;2023-02-11T03:44:39;-2.10;99.90
66184;DHT22;52989;48.796;9.806;2023-02-11T03:47:06;-1.60;99.90
66184;DHT22;52989;48.796;9.806;2023-02-11T03:49:33;-1.70;99.90
66184;DHT22;52989;48.796;9.806;2023-02-11T03:51:59;-2.00;99.90
66184;DHT22;52989;48.796;9.806;2023-02-11T03:54:27;-1.70;99.90
66184;DHT22;52989;48.796;9.806;2023-02-11T03:56:54;-2.40;99.90
66184;DHT22;52989;48.796;9.806;2023-02-11T03:59:20;-2.50;99.90
66184;DHT22;52989;48.796;9.806;2023-02-11T04:01:46;-2.80;99.90
66184;DHT22;52989;48.796;9.806;2023-02-11T04:04:11;-3.10;99.90
66184;DHT22;52989;48.796;9.806;2023-02-11T04:06:37;-3.20;99.90
66184;DHT22;52989;48.796;9.806;2023-02-11T04:09:03;-3.20;99.90
66184;DHT22;52989;48.796;9.806;2023-02-11T04:11:28;-3.20;99.90
66184;DHT22;52989;48.796;9.806;2023-02-11T04:13:54;-3.00;99.90
66184;DHT22;52989;48.796;9.806;2023-02-11T04:16:19;-2.70;99.90
66184;DHT22;52989;48.796;9.806;2023-02-11T04:18:45;-2.40;99.90
66184;DHT22;52989;48.796;9.806;2023-02-11T04:21:10;-2.00;99.90
66184;DHT22;52989;48.796;9.806;2023-02-11T04:23:36;-2.20;99.90
66184;DHT22;52989;48.796;9.806;2023-02-11T04:26:01;-2.10;99.90
66184;DHT22;52989;48.796;9.806;2023-02-11T04:28:27;-2.10;99.90
66184;DHT22;52989;48.796;9.806;2023-02-11T04:30:54;-2.30;99.90
66184;DHT22;52989;48.796;9.806;2023-02-11T04:33:19;-2.40;99.90
66184;DHT22;52989;48.796;9.806;2023-02-11T04:35:45;-2.20;99.90
66184;DHT22;52989;48.796;9.806;2023-02-11T04:38:11;-2.20;99.90
66184;DHT22;52989;48.796;9.806;2023-02-11T04:40:36;-1.60;99.90
66184;DHT22;52989;48.796;9.806;2023-02-11T04:43:02;-1.80;99.90
66184;DHT22;52989;48.796;9.806;2023-02-11T04:45:27;-1.80;99.90
66184;DHT22;52989;48.796;9.806;2023-02-11T04:47:53;-1.90;99.90
66184;DHT22;52989;48.796;9.806;2023-02-11T04:50:18;-2.00;99.90
66184;DHT22;52989;48.796;9.806;2023-02-11T04:52:44;-1.90;99.90
66184;DHT22;52989;48.796;9.806;2023-02-11T04:55:09;-2.00;99.90
66184;DHT22;52989;48.796;9.806;2023-02-11T04:57:35;-1.90;99.90
66184;DHT22;52989;48.796;9.806;2023-02-11T05:00:00;-2.00;99.90
66184;DHT22;52989;48.796;9.806;2023-02-11T05:02:25;-2.10;99.90
66184;DHT22;52989;48.796;9.806;2023-02-11T05:04:51;-2.00;99.90
66184;DHT22;52989;48.796;9.806;2023-02-11T05:07:17;-1.60;99.90
66184;DHT22;52989;48.796;9.806;2023-02-11T05:09:42;-1.70;99.90
66184;DHT22;52989;48.796;9.806;2023-02-11T05:12:08;-1.40;99.90
66184;DHT22;52989;48.796;9.806;2023-02-11T05:14:33;-1.50;99.90
66184;DHT22;52989;48.796;9.806;2023-02-11T05:16:58;-1.40;99.90
66184;DHT22;52989;48.796;9.806;2023-02-11T05:19:24;-1.20;99.90
66184;DHT22;52989;48.796;9.806;2023-02-11T05:21:49;-1.40;99.90
66184;DHT22;52989;48.796;9.806;2023-02-11T05:24:15;-1.40;99.90
66184;DHT22;52989;48.796;9.806;2023-02-11T05:26:40;-0.90;99.90
66184;DHT22;52989;48.796;9.806;2023-02-11T05:29:06;-1.10;99.90
66184;DHT22;52989;48.796;9.806;2023-02-11T05:31:31;-0.80;99.90
66184;DHT22;52989;48.796;9.806;2023-02-11T05:33:57;-0.80;99.90
66184;DHT22;52989;48.796;9.806;2023-02-11T05:36:23;-1.10;99.90
66184;DHT22;52989;48.796;9.806;2023-02-11T05:38:48;-1.00;99.90
66184;DHT22;52989;48.796;9.806;2023-02-11T05:41:15;-1.10;99.90
66184;DHT22;52989;48.796;9.806;2023-02-11T05:43:40;-1.20;99.90
66184;DHT22;52989;48.796;9.806;2023-02-11T05:46:06;-0.90;99.90
66184;DHT22;52989;48.796;9.806;2023-02-11T05:48:31;-0.80;99.90
66184;DHT22;52989;48.796;9.806;2023-02-11T05:50:57;-0.80;99.90
66184;DHT22;52989;48.796;9.806;2023-02-11T05:53:23;-0.60;99.90
66184;DHT22;52989;48.796;9.806;2023-02-11T05:55:48;-0.70;99.90
66184;DHT22;52989;48.796;9.806;2023-02-11T05:58:14;-0.40;99.90
66184;DHT22;52989;48.796;9.806;2023-02-11T06:00:39;-0.30;99.20
66184;DHT22;52989;48.796;9.806;2023-02-11T06:03:05;-0.30;99.90
66184;DHT22;52989;48.796;9.806;2023-02-11T06:05:30;-1.00;99.90
66184;DHT22;52989;48.796;9.806;2023-02-11T06:07:56;-0.90;99.90
66184;DHT22;52989;48.796;9.806;2023-02-11T06:10:22;-0.50;99.90
66184;DHT22;52989;48.796;9.806;2023-02-11T06:12:47;0.10;99.60
66184;DHT22;52989;48.796;9.806;2023-02-11T06:15:12;0.00;99.00
66184;DHT22;52989;48.796;9.806;2023-02-11T06:17:38;-0.20;99.90
66184;DHT22;52989;48.796;9.806;2023-02-11T06:20:04;-0.80;99.90
66184;DHT22;52989;48.796;9.806;2023-02-11T06:22:30;-0.80;99.90
66184;DHT22;52989;48.796;9.806;2023-02-11T06:24:56;-0.40;99.90
66184;DHT22;52989;48.796;9.806;2023-02-11T06:27:21;-0.10;98.50
66184;DHT22;52989;48.796;9.806;2023-02-11T06:29:47;-0.10;98.90
66184;DHT22;52989;48.796;9.806;2023-02-11T06:32:12;0.00;98.00
66184;DHT22;52989;48.796;9.806;2023-02-11T06:34:38;0.40;99.50
66184;DHT22;52989;48.796;9.806;2023-02-11T06:37:03;0.00;99.40
66184;DHT22;52989;48.796;9.806;2023-02-11T06:39:29;-0.40;99.90
66184;DHT22;52989;48.796;9.806;2023-02-11T06:41:54;-0.30;99.90
66184;DHT22;52989;48.796;9.806;2023-02-11T06:44:20;-0.30;99.90
66184;DHT22;52989;48.796;9.806;2023-02-11T06:46:46;-0.60;99.90
66184;DHT22;52989;48.796;9.806;2023-02-11T06:49:11;-0.90;99.90
66184;DHT22;52989;48.796;9.806;2023-02-11T06:51:37;-1.10;99.90
66184;DHT22;52989;48.796;9.806;2023-02-11T06:54:03;-1.10;99.90
66184;DHT22;52989;48.796;9.806;2023-02-11T06:56:28;-1.10;99.90
66184;DHT22;52989;48.796;9.806;2023-02-11T06:58:54;-1.10;99.90
66184;DHT22;52989;48.796;9.806;2023-02-11T07:01:20;-1.00;99.90
66184;DHT22;52989;48.796;9.806;2023-02-11T07:03:46;-0.90;99.90
66184;DHT22;52989;48.796;9.806;2023-02-11T07:06:13;-0.30;99.90
66184;DHT22;52989;48.796;9.806;2023-02-11T07:08:38;-0.40;99.90
66184;DHT22;52989;48.796;9.806;2023-02-11T07:11:08;-0.70;99.90
66184;DHT22;52989;48.796;9.806;2023-02-11T07:13:34;-0.20;99.90
66184;DHT22;52989;48.796;9.806;2023-02-11T07:16:02;0.20;99.90
66184;DHT22;52989;48.796;9.806;2023-02-11T07:18:27;-0.30;99.90
66184;DHT22;52989;48.796;9.806;2023-02-11T07:20:53;-0.30;99.90
66184;DHT22;52989;48.796;9.806;2023-02-11T07:23:18;-0.20;99.90
66184;DHT22;52989;48.796;9.806;2023-02-11T07:25:44;-0.40;99.90
66184;DHT22;52989;48.796;9.806;2023-02-11T07:28:09;0.00;99.90
66184;DHT22;52989;48.796;9.806;2023-02-11T07:30:35;-0.40;99.90
66184;DHT22;52989;48.796;9.806;2023-02-11T07:33:00;-0.60;99.90
66184;DHT22;52989;48.796;9.806;2023-02-11T07:35:26;-0.60;99.90
66184;DHT22;52989;48.796;9.806;2023-02-11T07:37:51;-0.20;99.90
66184;DHT22;52989;48.796;9.806;2023-02-11T07:40:17;-0.20;99.90
66184;DHT22;52989;48.796;9.806;2023-02-11T07:42:42;-0.30;99.90
66184;DHT22;52989;48.796;9.806;2023-02-11T07:45:08;-0.20;99.90
66184;DHT22;52989;48.796;9.806;2023-02-11T07:47:34;0.30;98.80
66184;DHT22;52989;48.796;9.806;2023-02-11T07:49:59;0.60;98.20
66184;DHT22;52989;48.796;9.806;2023-02-11T07:52:28;0.70;98.70
66184;DHT22;52989;48.796;9.806;2023-02-11T07:54:53;0.50;99.00
66184;DHT22;52989;48.796;9.806;2023-02-11T07:57:19;0.40;99.40
66184;DHT22;52989;48.796;9.806;2023-02-11T07:59:44;0.50;99.90
66184;DHT22;52989;48.796;9.806;2023-02-11T08:02:10;0.40;99.90
66184;DHT22;52989;48.796;9.806;2023-02-11T08:04:35;0.30;99.90
66184;DHT22;52989;48.796;9.806;2023-02-11T08:07:00;0.60;99.70
66184;DHT22;52989;48.796;9.806;2023-02-11T08:09:26;0.80;99.30
66184;DHT22;52989;48.796;9.806;2023-02-11T08:11:51;0.70;97.60
66184;DHT22;52989;48.796;9.806;2023-02-11T08:14:17;0.70;98.40
66184;DHT22;52989;48.796;9.806;2023-02-11T08:16:42;0.60;97.40
66184;DHT22;52989;48.796;9.806;2023-02-11T08:19:12;0.60;97.60
66184;DHT22;52989;48.796;9.806;2023-02-11T08:21:38;1.00;97.20
66184;DHT22;52989;48.796;9.806;2023-02-11T08:24:03;1.10;97.10
66184;DHT22;52989;48.796;9.806;2023-02-11T08:26:30;1.30;96.20
66184;DHT22;52989;48.796;9.806;2023-02-11T08:29:04;1.30;95.70
66184;DHT22;52989;48.796;9.806;2023-02-11T08:31:33;1.20;95.40
66184;DHT22;52989;48.796;9.806;2023-02-11T08:33:59;1.20;95.90
66184;DHT22;52989;48.796;9.806;2023-02-11T08:36:33;1.40;95.60
66184;DHT22;52989;48.796;9.806;2023-02-11T08:39:00;1.50;95.00
66184;DHT22;52989;48.796;9.806;2023-02-11T08:41:30;1.40;95.60
66184;DHT22;52989;48.796;9.806;2023-02-11T08:43:55;1.90;96.10
66184;DHT22;52989;48.796;9.806;2023-02-11T08:46:21;1.90;93.60
66184;DHT22;52989;48.796;9.806;2023-02-11T08:48:47;1.40;94.50
66184;DHT22;52989;48.796;9.806;2023-02-11T08:51:14;1.20;94.90
66184;DHT22;52989;48.796;9.806;2023-02-11T08:53:40;1.70;95.40
66184;DHT22;52989;48.796;9.806;2023-02-11T08:56:05;1.50;93.90
66184;DHT22;52989;48.796;9.806;2023-02-11T08:58:31;1.50;94.60
66184;DHT22;52989;48.796;9.806;2023-02-11T09:00:56;1.70;94.60
66184;DHT22;52989;48.796;9.806;2023-02-11T09:03:22;2.70;95.10
66184;DHT22;52989;48.796;9.806;2023-02-11T09:05:48;2.30;93.00
66184;DHT22;52989;48.796;9.806;2023-02-11T09:08:21;2.30;93.00
66184;DHT22;52989;48.796;9.806;2023-02-11T09:10:46;2.10;93.30
66184;DHT22;52989;48.796;9.806;2023-02-11T09:13:12;2.50;93.00
66184;DHT22;52989;48.796;9.806;2023-02-11T09:15:37;2.50;91.60
66184;DHT22;52989;48.796;9.806;2023-02-11T09:18:03;2.60;91.50
66184;DHT22;52989;48.796;9.806;2023-02-11T09:20:29;2.20;92.00
66184;DHT22;52989;48.796;9.806;2023-02-11T09:22:56;2.30;92.30
66184;DHT22;52989;48.796;9.806;2023-02-11T09:25:21;2.40;92.00
66184;DHT22;52989;48.796;9.806;2023-02-11T09:27:47;2.30;92.10
66184;DHT22;52989;48.796;9.806;2023-02-11T09:30:12;2.60;92.40
66184;DHT22;52989;48.796;9.806;2023-02-11T09:32:38;2.70;92.00
66184;DHT22;52989;48.796;9.806;2023-02-11T09:35:03;3.10;91.20
66184;DHT22;52989;48.796;9.806;2023-02-11T09:37:29;3.00;90.50
66184;DHT22;52989;48.796;9.806;2023-02-11T09:39:54;3.00;90.70
66184;DHT22;52989;48.796;9.806;2023-02-11T09:45:04;3.30;88.90
66184;DHT22;52989;48.796;9.806;2023-02-11T09:47:35;3.10;90.00
66184;DHT22;52989;48.796;9.806;2023-02-11T09:50:04;3.20;90.00
66184;DHT22;52989;48.796;9.806;2023-02-11T09:54:57;3.80;86.50
66184;DHT22;52989;48.796;9.806;2023-02-11T09:57:41;4.10;86.00
66184;DHT22;52989;48.796;9.806;2023-02-11T10:00:20;4.10;86.00
66184;DHT22;52989;48.796;9.806;2023-02-11T10:08:05;4.00;86.00
66184;DHT22;52989;48.796;9.806;2023-02-11T10:10:38;3.80;86.70
66184;DHT22;52989;48.796;9.806;2023-02-11T10:13:19;3.80;86.00
66184;DHT22;52989;48.796;9.806;2023-02-11T10:15:49;3.70;86.00
66184;DHT22;52989;48.796;9.806;2023-02-11T10:23:21;4.20;85.30
66184;DHT22;52989;48.796;9.806;2023-02-11T10:25:49;4.00;87.00
66184;DHT22;52989;48.796;9.806;2023-02-11T10:28:18;4.10;86.60
66184;DHT22;52989;48.796;9.806;2023-02-11T10:30:47;4.30;86.90
66184;DHT22;52989;48.796;9.806;2023-02-11T10:33:30;4.50;86.30
66184;DHT22;52989;48.796;9.806;2023-02-11T10:35:57;4.70;85.50
66184;DHT22;52989;48.796;9.806;2023-02-11T10:38:22;4.90;84.70
66184;DHT22;52989;48.796;9.806;2023-02-11T10:40:48;5.00;84.20
66184;DHT22;52989;48.796;9.806;2023-02-11T10:43:14;5.20;84.80
66184;DHT22;52989;48.796;9.806;2023-02-11T10:45:47;5.50;84.30
66184;DHT22;52989;48.796;9.806;2023-02-11T10:53:41;5.70;82.50
66184;DHT22;52989;48.796;9.806;2023-02-11T10:56:07;5.70;83.40
66184;DHT22;52989;48.796;9.806;2023-02-11T10:58:43;5.70;82.40
66184;DHT22;52989;48.796;9.806;2023-02-11T11:01:10;5.80;82.30
66184;DHT22;52989;48.796;9.806;2023-02-11T11:03:36;5.80;81.70
66184;DHT22;52989;48.796;9.806;2023-02-11T11:06:09;6.10;81.60
66184;DHT22;52989;48.796;9.806;2023-02-11T11:08:36;6.20;81.80
66184;DHT22;52989;48.796;9.806;2023-02-11T11:11:03;6.40;81.80
66184;DHT22;52989;48.796;9.806;2023-02-11T11:16:08;6.50;80.70
66184;DHT22;52989;48.796;9.806;2023-02-11T11:18:39;6.60;80.30
66184;DHT22;52989;48.796;9.806;2023-02-11T11:21:05;6.60;80.90
66184;DHT22;52989;48.796;9.806;2023-02-11T11:23:33;6.80;81.80
66184;DHT22;52989;48.796;9.806;2023-02-11T11:28:28;6.90;81.50
66184;DHT22;52989;48.796;9.806;2023-02-11T11:30:54;6.90;82.40
66184;DHT22;52989;48.796;9.806;2023-02-11T11:33:25;7.10;82.50
66184;DHT22;52989;48.796;9.806;2023-02-11T11:35:54;7.20;81.40
66184;DHT22;52989;48.796;9.806;2023-02-11T11:38:21;7.20;81.30
66184;DHT22;52989;48.796;9.806;2023-02-11T11:40:47;7.30;81.30
66184;DHT22;52989;48.796;9.806;2023-02-11T11:43:32;7.20;81.00
66184;DHT22;52989;48.796;9.806;2023-02-11T11:45:58;7.30;80.90
66184;DHT22;52989;48.796;9.806;2023-02-11T11:48:25;7.60;80.80
66184;DHT22;52989;48.796;9.806;2023-02-11T11:51:03;7.70;80.40
66184;DHT22;52989;48.796;9.806;2023-02-11T11:53:36;7.70;80.10
66184;DHT22;52989;48.796;9.806;2023-02-11T11:56:04;7.80;78.60
66184;DHT22;52989;48.796;9.806;2023-02-11T11:58:31;7.70;79.70
66184;DHT22;52989;48.796;9.806;2023-02-11T12:20:26;8.80;77.20
66184;DHT22;52989;48.796;9.806;2023-02-11T12:22:24;8.60;75.80
66184;DHT22;52989;48.796;9.806;2023-02-11T12:25:26;8.30;76.70
66184;DHT22;52989;48.796;9.806;2023-02-11T12:35:55;8.80;75.10
66184;DHT22;52989;48.796;9.806;2023-02-11T12:41:03;8.30;76.40
66184;DHT22;52989;48.796;9.806;2023-02-11T12:43:32;8.10;77.50
66184;DHT22;52989;48.796;9.806;2023-02-11T12:46:13;8.00;77.80
66184;DHT22;52989;48.796;9.806;2023-02-11T12:51:24;8.10;77.90
66184;DHT22;52989;48.796;9.806;2023-02-11T12:54:06;8.20;77.30
66184;DHT22;52989;48.796;9.806;2023-02-11T12:56:36;8.20;78.00
66184;DHT22;52989;48.796;9.806;2023-02-11T12:59:03;8.40;77.50
66184;DHT22;52989;48.796;9.806;2023-02-11T13:01:31;8.50;76.90
66184;DHT22;52989;48.796;9.806;2023-02-11T13:04:00;8.50;76.40
66184;DHT22;52989;48.796;9.806;2023-02-11T13:06:40;8.30;76.70
66184;DHT22;52989;48.796;9.806;2023-02-11T13:09:10;8.60;77.10
66184;DHT22;52989;48.796;9.806;2023-02-11T13:11:41;8.60;76.60
66184;DHT22;52989;48.796;9.806;2023-02-11T13:14:13;8.70;76.70
66184;DHT22;52989;48.796;9.806;2023-02-11T13:16:43;8.60;77.00
66184;DHT22;52989;48.796;9.806;2023-02-11T13:21:55;8.10;77.30
66184;DHT22;52989;48.796;9.806;2023-02-11T13:24:29;7.80;78.50
66184;DHT22;52989;48.796;9.806;2023-02-11T13:32:13;7.90;78.90
66184;DHT22;52989;48.796;9.806;2023-02-11T13:40:04;8.50;78.40
66184;DHT22;52989;48.796;9.806;2023-02-11T13:42:31;8.70;77.80
66184;DHT22;52989;48.796;9.806;2023-02-11T13:44:57;8.90;76.60
66184;DHT22;52989;48.796;9.806;2023-02-11T13:47:29;8.80;76.80
66184;DHT22;52989;48.796;9.806;2023-02-11T13:49:56;8.70;76.00
66184;DHT22;52989;48.796;9.806;2023-02-11T13:52:32;8.70;76.70
66184;DHT22;52989;48.796;9.806;2023-02-11T13:55:08;8.80;76.90
66184;DHT22;52989;48.796;9.806;2023-02-11T13:57:34;8.90;77.10
66184;DHT22;52989;48.796;9.806;2023-02-11T14:00:02;8.80;76.00
66184;DHT22;52989;48.796;9.806;2023-02-11T14:02:34;8.60;75.80
66184;DHT22;52989;48.796;9.806;2023-02-11T14:05:20;8.50;76.20
66184;DHT22;52989;48.796;9.806;2023-02-11T14:16:18;8.40;76.90
66184;DHT22;52989;48.796;9.806;2023-02-11T14:23:37;8.30;78.00
66184;DHT22;52989;48.796;9.806;2023-02-11T14:26:28;8.30;77.90
66184;DHT22;52989;48.796;9.806;2023-02-11T14:31:25;8.40;78.10
66184;DHT22;52989;48.796;9.806;2023-02-11T14:39:15;8.30;78.40
66184;DHT22;52989;48.796;9.806;2023-02-11T14:41:43;8.30;78.50
66184;DHT22;52989;48.796;9.806;2023-02-11T14:44:14;8.30;78.60
66184;DHT22;52989;48.796;9.806;2023-02-11T14:46:48;8.30;79.00
66184;DHT22;52989;48.796;9.806;2023-02-11T14:49:18;8.70;78.80
66184;DHT22;52989;48.796;9.806;2023-02-11T14:51:45;8.70;78.20
66184;DHT22;52989;48.796;9.806;2023-02-11T14:54:13;8.80;78.50
66184;DHT22;52989;48.796;9.806;2023-02-11T14:56:41;8.70;78.20
66184;DHT22;52989;48.796;9.806;2023-02-11T14:59:20;8.50;78.90
66184;DHT22;52989;48.796;9.806;2023-02-11T15:01:49;8.50;79.60
66184;DHT22;52989;48.796;9.806;2023-02-11T15:04:25;8.30;80.30
66184;DHT22;52989;48.796;9.806;2023-02-11T15:06:51;8.00;80.40
66184;DHT22;52989;48.796;9.806;2023-02-11T15:09:18;8.00;81.60
66184;DHT22;52989;48.796;9.806;2023-02-11T15:11:46;7.80;80.30
66184;DHT22;52989;48.796;9.806;2023-02-11T15:16:43;7.80;81.90
66184;DHT22;52989;48.796;9.806;2023-02-11T15:19:15;7.90;81.90
66184;DHT22;52989;48.796;9.806;2023-02-11T15:21:43;7.80;82.10
66184;DHT22;52989;48.796;9.806;2023-02-11T15:24:28;7.90;81.60
66184;DHT22;52989;48.796;9.806;2023-02-11T15:26:58;7.90;81.80
66184;DHT22;52989;48.796;9.806;2023-02-11T15:29:32;7.80;81.70
66184;DHT22;52989;48.796;9.806;2023-02-11T15:32:02;7.80;82.00
66184;DHT22;52989;48.796;9.806;2023-02-11T15:34:30;7.60;82.30
66184;DHT22;52989;48.796;9.806;2023-02-11T15:36:56;7.40;83.10
66184;DHT22;52989;48.796;9.806;2023-02-11T15:42:14;7.40;83.20
66184;DHT22;52989;48.796;9.806;2023-02-11T15:44:39;7.40;83.60
66184;DHT22;52989;48.796;9.806;2023-02-11T15:47:08;7.40;83.60
66184;DHT22;52989;48.796;9.806;2023-02-11T15:49:33;7.40;84.00
66184;DHT22;52989;48.796;9.806;2023-02-11T15:51:59;7.30;84.00
66184;DHT22;52989;48.796;9.806;2023-02-11T15:54:26;7.30;83.90
66184;DHT22;52989;48.796;9.806;2023-02-11T15:56:53;7.40;83.90
66184;DHT22;52989;48.796;9.806;2023-02-11T16:01:51;7.40;84.50
66184;DHT22;52989;48.796;9.806;2023-02-11T16:04:18;7.50;83.70
66184;DHT22;52989;48.796;9.806;2023-02-11T16:06:44;7.40;82.60
66184;DHT22;52989;48.796;9.806;2023-02-11T16:16:48;7.40;81.10
66184;DHT22;52989;48.796;9.806;2023-02-11T16:19:18;7.20;82.00
66184;DHT22;52989;48.796;9.806;2023-02-11T16:21:45;7.20;82.80
66184;DHT22;52989;48.796;9.806;2023-02-11T16:24:18;7.20;83.00
66184;DHT22;52989;48.796;9.806;2023-02-11T16:26:46;7.10;83.40
66184;DHT22;52989;48.796;9.806;2023-02-11T16:29:13;7.00;83.80
66184;DHT22;52989;48.796;9.806;2023-02-11T16:31:40;7.00;84.30
66184;DHT22;52989;48.796;9.806;2023-02-11T16:34:27;6.90;84.30
66184;DHT22;52989;48.796;9.806;2023-02-11T16:36:52;7.00;84.50
66184;DHT22;52989;48.796;9.806;2023-02-11T16:39:18;6.90;84.20
66184;DHT22;52989;48.796;9.806;2023-02-11T16:41:45;6.90;84.10
66184;DHT22;52989;48.796;9.806;2023-02-11T16:44:11;6.80;84.40
66184;DHT22;52989;48.796;9.806;2023-02-11T16:46:37;6.80;84.70
66184;DHT22;52989;48.796;9.806;2023-02-11T16:49:07;6.80;85.20
66184;DHT22;52989;48.796;9.806;2023-02-11T16:51:36;6.70;84.60
66184;DHT22;52989;48.796;9.806;2023-02-11T16:54:02;6.70;84.70
66184;DHT22;52989;48.796;9.806;2023-02-11T16:56:28;6.70;84.90
66184;DHT22;52989;48.796;9.806;2023-02-11T16:58:53;6.60;85.00
66184;DHT22;52989;48.796;9.806;2023-02-11T17:01:19;6.60;85.30
66184;DHT22;52989;48.796;9.806;2023-02-11T17:03:44;6.60;85.60
66184;DHT22;52989;48.796;9.806;2023-02-11T17:06:10;6.50;85.60
66184;DHT22;52989;48.796;9.806;2023-02-11T17:08:36;6.50;85.60
66184;DHT22;52989;48.796;9.806;2023-02-11T17:11:01;6.50;85.50
66184;DHT22;52989;48.796;9.806;2023-02-11T17:13:27;6.50;85.60
66184;DHT22;52989;48.796;9.806;2023-02-11T17:15:53;6.50;85.70
66184;DHT22;52989;48.796;9.806;2023-02-11T17:18:18;6.50;85.80
66184;DHT22;52989;48.796;9.806;2023-02-11T17:20:44;6.50;85.90
66184;DHT22;52989;48.796;9.806;2023-02-11T17:23:09;6.40;86.60
66184;DHT22;52989;48.796;9.806;2023-02-11T17:25:35;6.40;86.80
66184;DHT22;52989;48.796;9.806;2023-02-11T17:28:04;6.30;87.20
66184;DHT22;52989;48.796;9.806;2023-02-11T17:30:29;6.30;87.50
66184;DHT22;52989;48.796;9.806;2023-02-11T17:32:55;6.20;87.90
66184;DHT22;52989;48.796;9.806;2023-02-11T17:35:20;6.10;88.40
66184;DHT22;52989;48.796;9.806;2023-02-11T17:37:46;6.00;88.50
66184;DHT22;52989;48.796;9.806;2023-02-11T17:40:11;6.00;88.60
66184;DHT22;52989;48.796;9.806;2023-02-11T17:42:37;5.90;89.10
66184;DHT22;52989;48.796;9.806;2023-02-11T17:45:03;5.80;89.50
66184;DHT22;52989;48.796;9.806;2023-02-11T17:47:28;5.80;89.80
66184;DHT22;52989;48.796;9.806;2023-02-11T17:49:54;5.90;89.30
66184;DHT22;52989;48.796;9.806;2023-02-11T17:52:19;5.90;89.60
66184;DHT22;52989;48.796;9.806;2023-02-11T17:54:45;5.90;89.50
66184;DHT22;52989;48.796;9.806;2023-02-11T17:57:11;5.80;89.80
66184;DHT22;52989;48.796;9.806;2023-02-11T17:59:37;5.70;90.10
66184;DHT22;52989;48.796;9.806;2023-02-11T18:02:03;5.70;90.20
66184;DHT22;52989;48.796;9.806;2023-02-11T18:04:29;5.70;90.30